Transatlantic — WDC2769 — position and weather

sailwx.info

Track history (hours):
 
Tides and Currents Weather Stations Pressure Air Temp Water Temp Dewpoint Dewpoint Depression Visibility Wind Speed Wind Dir Waves Ship Positions

Transatlantic

Owner: TRANSATLANTIC LINES SHIP HOLDINGS II INC, Greenwich, CT. More information available from US FCC via Universal Licensing System and Coast Guard Vessel Documentation Center.

Last reported at 2015-Aug-29 01:17 UTC. Time now 2015-Sep-02 23:55 UTC.
Position N 30°46' E 032°19'.

Length 101 m; draft 5.2 m.

Type: Cargo ship. MMSI: 366997520.

Date/timePositionNaut miles runAvg speedWind from/ knotsBaromVisibWave heightAir tempDewpointWater temp
2015-Aug-29 01:17N 30°46' E 032°19'37 7.6
2015-Aug-28 20:28N 31°22' E 032°20'1 0.6
2015-Aug-28 18:21N 31°21' E 032°19'0 0.0
2015-Aug-28 17:27N 31°21' E 032°19'0 0.0
2015-Aug-28 16:33N 31°21' E 032°19'0 0.0
2015-Aug-28 15:09N 31°21' E 032°19'0 0.0
2015-Aug-28 13:30N 31°21' E 032°19'0 0.0
2015-Aug-28 12:30N 31°21' E 032°19'0 0.0
2015-Aug-28 11:12N 31°21' E 032°19'37 5.2
2015-Aug-28 04:06N 31°50' E 031°51'2212.2
2015-Aug-28 02:16N 31°56' E 031°26'912.1
2015-Aug-28 01:33N 31°59' E 031°16'1312.0
2015-Aug-28 00:31N 32°03' E 031°02'1511.6
2015-Aug-27 23:12N 32°08' E 030°45'1011.6
2015-Aug-27 22:19N 32°11' E 030°33'911.8
2015-Aug-27 21:33N 32°13' E 030°23'1211.9
2015-Aug-27 20:33N 32°17' E 030°10'1211.9
2015-Aug-27 19:32N 32°20' E 029°56'1212.1
2015-Aug-27 18:33N 32°24' E 029°43'1212.3
2015-Aug-27 17:33N 32°27' E 029°29'61612.2
2015-Aug-25 15:14N 35°33' E 017°40'3812.8
2015-Aug-25 12:14N 35°44' E 016°55'912.8
2015-Aug-25 11:30N 35°47' E 016°44'1312.6
2015-Aug-25 10:29N 35°51' E 016°29'1512.6
2015-Aug-25 09:15N 35°56' E 016°11'912.6
2015-Aug-25 08:32N 35°58' E 016°00'2412.3
2015-Aug-25 06:33N 36°05' E 015°31'1212.1
2015-Aug-25 05:33N 36°09' E 015°17'1212.3
2015-Aug-25 04:33N 36°12' E 015°02'1212.3
2015-Aug-25 03:33N 36°16' E 014°48'1212.2
2015-Aug-25 02:33N 36°20' E 014°33'1211.9
2015-Aug-25 01:33N 36°24' E 014°19'1211.8
2015-Aug-25 00:33N 36°27' E 014°05'1212.0
2015-Aug-24 23:33N 36°31' E 013°51'1211.9
2015-Aug-24 22:33N 36°34' E 013°37'1211.9
2015-Aug-24 21:33N 36°38' E 013°23'1212.0
2015-Aug-24 20:33N 36°42' E 013°09'1212.1
2015-Aug-24 19:33N 36°46' E 012°54'1212.2
2015-Aug-24 18:33N 36°49' E 012°40'1212.1
2015-Aug-24 17:33N 36°53' E 012°26'1211.7
2015-Aug-24 16:33N 36°57' E 012°12'1111.5
2015-Aug-24 15:33N 37°01' E 011°58'1111.3
2015-Aug-24 14:33N 37°07' E 011°46'1010.3
2015-Aug-24 13:33N 37°12' E 011°35'10 9.9
2015-Aug-24 12:33N 37°16' E 011°24'1310.8
2015-Aug-24 11:22N 37°23' E 011°10'910.8
2015-Aug-24 10:33N 37°26' E 010°60'1211.8
2015-Aug-24 09:33N 37°28' E 010°45'5512.8
2015-Aug-24 05:14N 37°36' E 009°36'912.9
2015-Aug-24 04:33N 37°37' E 009°25'1312.8
2015-Aug-24 03:33N 37°38' E 009°09'1412.5
2015-Aug-24 02:27N 37°39' E 008°52'1212.6
2015-Aug-24 01:31N 37°39' E 008°37'21911.9
2015-Aug-23 07:13N 37°30' E 004°01'4411.9
2015-Aug-23 03:30N 37°31' E 003°05'2312.1
2015-Aug-23 01:33N 37°30' E 002°36'1211.9
2015-Aug-23 00:31N 37°30' E 002°20'1111.7
2015-Aug-22 23:33N 37°30' E 002°06'13712.4
2015-Aug-22 12:28N 36°41' W 000°35'1112.0
2015-Aug-22 11:33N 36°38' W 000°48'40311.8
2015-Aug-21 01:20N 35°58' W 009°05'3512.5
2015-Aug-20 22:33N 36°24' W 009°33'1312.4
2015-Aug-20 21:32N 36°34' W 009°43'1312.3
2015-Aug-20 20:27N 36°44' W 009°53'1112.3
2015-Aug-20 19:33N 36°53' W 010°01'1212.2
2015-Aug-20 18:33N 37°03' W 010°10'1211.8
2015-Aug-20 17:33N 37°14' W 010°15'1312.4
2015-Aug-20 16:33N 37°26' W 010°18'1312.7
2015-Aug-20 15:33N 37°39' W 010°21'1313.0
2015-Aug-20 14:33N 37°52' W 010°24'1313.0
2015-Aug-20 13:33N 38°05' W 010°26'1313.1
2015-Aug-20 12:33N 38°18' W 010°25'1512.8
2015-Aug-20 11:24N 38°33' W 010°24'2712.8
2015-Aug-20 09:19N 38°59' W 010°26'1012.6
2015-Aug-20 08:32N 39°09' W 010°26'1212.6
2015-Aug-20 07:33N 39°21' W 010°25'2712.3
2015-Aug-20 05:23N 39°48' W 010°25'6012.4
2015-Aug-20 00:31N 40°48' W 010°25'  
Track history (hours):
 
Tides and Currents Weather Stations Pressure Air Temp Water Temp Dewpoint Dewpoint Depression Visibility Wind Speed Wind Dir Waves Ship Positions

Transatlantic

Owner: TRANSATLANTIC LINES SHIP HOLDINGS II INC, Greenwich, CT. More information available from US FCC via Universal Licensing System and Coast Guard Vessel Documentation Center.

Last reported at 2015-Aug-29 01:17 UTC. Time now 2015-Sep-02 23:55 UTC.
Position N 30°46' E 032°19'.

Length 101 m; draft 5.2 m.

Type: Cargo ship. MMSI: 366997520.

Date/timePositionNaut miles runAvg speedWind from/ knotsBaromVisibWave heightAir tempDewpointWater temp
2015-Aug-29 01:17N 30°46' E 032°19'37 7.6
2015-Aug-28 20:28N 31°22' E 032°20'1 0.6
2015-Aug-28 18:21N 31°21' E 032°19'0 0.0
2015-Aug-28 17:27N 31°21' E 032°19'0 0.0
2015-Aug-28 16:33N 31°21' E 032°19'0 0.0
2015-Aug-28 15:09N 31°21' E 032°19'0 0.0
2015-Aug-28 13:30N 31°21' E 032°19'0 0.0
2015-Aug-28 12:30N 31°21' E 032°19'0 0.0
2015-Aug-28 11:12N 31°21' E 032°19'37 5.2
2015-Aug-28 04:06N 31°50' E 031°51'2212.2
2015-Aug-28 02:16N 31°56' E 031°26'912.1
2015-Aug-28 01:33N 31°59' E 031°16'1312.0
2015-Aug-28 00:31N 32°03' E 031°02'1511.6
2015-Aug-27 23:12N 32°08' E 030°45'1011.6
2015-Aug-27 22:19N 32°11' E 030°33'911.8
2015-Aug-27 21:33N 32°13' E 030°23'1211.9
2015-Aug-27 20:33N 32°17' E 030°10'1211.9
2015-Aug-27 19:32N 32°20' E 029°56'1212.1
2015-Aug-27 18:33N 32°24' E 029°43'1212.3
2015-Aug-27 17:33N 32°27' E 029°29'61612.2
2015-Aug-25 15:14N 35°33' E 017°40'3812.8
2015-Aug-25 12:14N 35°44' E 016°55'912.8
2015-Aug-25 11:30N 35°47' E 016°44'1312.6
2015-Aug-25 10:29N 35°51' E 016°29'1512.6
2015-Aug-25 09:15N 35°56' E 016°11'912.6
2015-Aug-25 08:32N 35°58' E 016°00'2412.3
2015-Aug-25 06:33N 36°05' E 015°31'1212.1
2015-Aug-25 05:33N 36°09' E 015°17'1212.3
2015-Aug-25 04:33N 36°12' E 015°02'1212.3
2015-Aug-25 03:33N 36°16' E 014°48'1212.2
2015-Aug-25 02:33N 36°20' E 014°33'1211.9
2015-Aug-25 01:33N 36°24' E 014°19'1211.8
2015-Aug-25 00:33N 36°27' E 014°05'1212.0
2015-Aug-24 23:33N 36°31' E 013°51'1211.9
2015-Aug-24 22:33N 36°34' E 013°37'1211.9
2015-Aug-24 21:33N 36°38' E 013°23'1212.0
2015-Aug-24 20:33N 36°42' E 013°09'1212.1
2015-Aug-24 19:33N 36°46' E 012°54'1212.2
2015-Aug-24 18:33N 36°49' E 012°40'1212.1
2015-Aug-24 17:33N 36°53' E 012°26'1211.7
2015-Aug-24 16:33N 36°57' E 012°12'1111.5
2015-Aug-24 15:33N 37°01' E 011°58'1111.3
2015-Aug-24 14:33N 37°07' E 011°46'1010.3
2015-Aug-24 13:33N 37°12' E 011°35'10 9.9
2015-Aug-24 12:33N 37°16' E 011°24'1310.8
2015-Aug-24 11:22N 37°23' E 011°10'910.8
2015-Aug-24 10:33N 37°26' E 010°60'1211.8
2015-Aug-24 09:33N 37°28' E 010°45'5512.8
2015-Aug-24 05:14N 37°36' E 009°36'912.9
2015-Aug-24 04:33N 37°37' E 009°25'1312.8
2015-Aug-24 03:33N 37°38' E 009°09'1412.5
2015-Aug-24 02:27N 37°39' E 008°52'1212.6
2015-Aug-24 01:31N 37°39' E 008°37'21911.9
2015-Aug-23 07:13N 37°30' E 004°01'4411.9
2015-Aug-23 03:30N 37°31' E 003°05'2312.1
2015-Aug-23 01:33N 37°30' E 002°36'1211.9
2015-Aug-23 00:31N 37°30' E 002°20'1111.7
2015-Aug-22 23:33N 37°30' E 002°06'13712.4
2015-Aug-22 12:28N 36°41' W 000°35'1112.0
2015-Aug-22 11:33N 36°38' W 000°48'40311.8
2015-Aug-21 01:20N 35°58' W 009°05'3512.5
2015-Aug-20 22:33N 36°24' W 009°33'1312.4
2015-Aug-20 21:32N 36°34' W 009°43'1312.3
2015-Aug-20 20:27N 36°44' W 009°53'1112.3
2015-Aug-20 19:33N 36°53' W 010°01'1212.2
2015-Aug-20 18:33N 37°03' W 010°10'1211.8
2015-Aug-20 17:33N 37°14' W 010°15'1312.4
2015-Aug-20 16:33N 37°26' W 010°18'1312.7
2015-Aug-20 15:33N 37°39' W 010°21'1313.0
2015-Aug-20 14:33N 37°52' W 010°24'1313.0
2015-Aug-20 13:33N 38°05' W 010°26'1313.1
2015-Aug-20 12:33N 38°18' W 010°25'1512.8
2015-Aug-20 11:24N 38°33' W 010°24'2712.8
2015-Aug-20 09:19N 38°59' W 010°26'1012.6
2015-Aug-20 08:32N 39°09' W 010°26'1212.6
2015-Aug-20 07:33N 39°21' W 010°25'2712.3
2015-Aug-20 05:23N 39°48' W 010°25'6012.4
2015-Aug-20 00:31N 40°48' W 010°25'  

Dump ship's entire track history